Maple Falls, WA (98266)

9:17 PM PDT on July 27, 2016 (GMT -0700)
Div 7-8, Paradise Lakes | | Change Station

Elev 528 ft 48.95 °N, 122.14 °W | Updated 20 seconds ago

Clear
Clear
68.2 °F
Feels Like 68.2 °F
N
0.0
Wind Variable Wind from East

Today
High -- | Low -- °F
--% Chance of Precip.
Yesterday
High -- | Low -- °F
Precip. -- in
Pressure 30.09 in
Visibility 10.0 miles
Clouds Clear
Dew Point 60 °F
Humidity 76%
Rainfall 0.00 in
Snow Depth Not available.
5:35 AM 8:53 PM
Last Quarter, 36% visible
METAR KBLI 280353Z 00000KT 10SM CLR 20/15 A3007 RMK AO2 SLP190 T02000150
Pressure 30.09 in
Visibility 10.0 miles
Clouds Clear
Dew Point 60 °F
Humidity 76%
Rainfall 0.00 in
Snow Depth Not available.
5:35 AM 8:53 PM
Last Quarter, 36% visible
METAR KBLI 280353Z 00000KT 10SM CLR 20/15 A3007 RMK AO2 SLP190 T02000150

10-Day Weather Forecast

Almanac

Astronomy

Jul. 27, 2016 Rise Set
Actual Time
Civil Twilight
Nautical Twilight
Astronomical Twilight
Moon
Length of Visible Light
Length of Day
Tomorrow will be .
, % of the Moon is Illuminated

Today's Extremes

State Highs State Lows

Community

WunderPhotos

Upload Photos

1,928,045 photos uploaded!

WunderBlog® & News

Nearby

Air Quality

  Air Quality AQ Index Pollutant
Not available.

Snow Depth

Station Depth Elevation

Earthquake Activity

City Distance Mag. Time & Date
Minimum magnitude displayed is 2.5.

Coastal Water Temperatures

Place Temperature

Stations

Nearby Weather Stations

Station Location Temp. Windchill Dew Point Humidity Wind Precip. Elev Updated Type
                   

Watches & Warnings

There are currently no watches in effect.